Raritan, Illinois
Current Conditions -  °F | °C
As of 2:55 AM on Sunday 26 Oct 2014 (Local Time) from KMQB Reporting Station
Clear Clear  
Wind Chill: 42°   Ceiling: Unl
Heat Index: 45°   Visibility: 10mi
Dew Point: 37°   Wind: 5mph
Humidity: 76%   Direction: 350°N
Pressure: 30.06"   Gusts: NA
Location:  40.7°N, 90.83°W
Report Text: KMQB 260755Z AUTO 35004KT 10SM CLR 07/03 A3006 RMK AO2 T00700030
Loading
Personal Weather Stations






























Interactive Weather Map
Tropical Storm Tracking
New forecast layout! Learn more

10-Day Weather Forecast

Advertisements
Track Severe Weather on mobile